Time;durP1;ratioP1;P1;durP2;ratioP2;P2;SDS_P1;SDS_P2;PMS_P1;PMS_P2;Temp;Humidity;BMP_temperature;BMP_pressure;BME280_temperature;BME280_humidity;BME280_pressure;Samples;Min_cycle;Max_cycle;Signal;HPM_P1;HPM_P2
2021/01/03 00:02:15;;;;;;;7.38;4.70;;;;;;;22.86;27.69;101435.06;4963884;28;117492;-59
2021/01/03 00:04:42;;;;;;;6.78;4.53;;;;;;;22.84;27.58;101434.25;4969086;28;96734;-59
2021/01/03 00:07:08;;;;;;;5.32;4.30;;;;;;;22.84;27.93;101426.25;4973293;28;97402;-59
2021/01/03 00:09:33;;;;;;;5.82;4.20;;;;;;;22.84;27.99;101428.06;4984107;28;97144;-59
2021/01/03 00:11:59;;;;;;;6.85;4.40;;;;;;;22.85;27.65;101428.00;4973401;28;118353;-59
2021/01/03 00:14:30;;;;;;;6.82;4.85;;;;;;;22.86;28.17;101436.84;4970776;28;100923;-59
2021/01/03 00:17:00;;;;;;;6.05;4.10;;;;;;;22.85;27.57;101433.31;4971778;28;97357;-59
2021/01/03 00:19:26;;;;;;;6.90;4.68;;;;;;;22.85;27.84;101435.09;4940298;28;100737;-59
2021/01/03 00:21:52;;;;;;;6.07;4.47;;;;;;;22.84;27.68;101425.41;4970716;28;117144;-59
2021/01/03 00:24:18;;;;;;;7.05;4.68;;;;;;;22.84;27.91;101434.25;4976201;28;97124;-59
2021/01/03 00:26:44;;;;;;;6.75;4.80;;;;;;;22.84;27.87;101436.91;4952036;28;97395;-59
2021/01/03 00:29:09;;;;;;;7.18;4.68;;;;;;;22.83;27.73;101437.81;4971396;28;97233;-59
2021/01/03 00:31:50;;;;;;;7.32;4.97;;;;;;;22.82;28.03;101433.41;4956050;28;117574;-59
2021/01/03 00:34:17;;;;;;;6.28;4.65;;;;;;;22.83;27.70;101435.16;4956320;28;96763;-59
2021/01/03 00:36:43;;;;;;;6.63;4.47;;;;;;;22.81;27.58;101435.19;4945141;28;97545;-59
2021/01/03 00:39:08;;;;;;;6.70;4.57;;;;;;;22.82;27.92;101430.75;4944477;28;100008;-59
2021/01/03 00:41:34;;;;;;;6.38;4.55;;;;;;;22.81;27.56;101427.22;4958284;28;116655;-59
2021/01/03 00:43:59;;;;;;;5.82;4.35;;;;;;;22.81;27.92;101421.03;4965012;28;96850;-59
2021/01/03 00:46:25;;;;;;;6.80;4.75;;;;;;;22.80;27.54;101411.31;4946912;28;126965;-59
2021/01/03 00:48:50;;;;;;;7.05;5.35;;;;;;;22.81;27.85;101421.03;4960153;28;97356;-59
2021/01/03 00:51:16;;;;;;;6.35;4.85;;;;;;;22.81;27.59;101423.69;4957913;28;116954;-59
2021/01/03 00:53:41;;;;;;;7.05;4.75;;;;;;;22.80;27.78;101421.97;4963680;28;116568;-59
2021/01/03 00:56:07;;;;;;;6.88;4.68;;;;;;;22.80;28.00;101420.16;4956873;28;126894;-59
2021/01/03 00:58:32;;;;;;;7.70;4.80;;;;;;;22.80;27.67;101413.97;4964491;28;98086;-59
2021/01/03 01:00:58;;;;;;;7.78;5.18;;;;;;;22.79;27.82;101421.06;4977018;28;96831;-59
2021/01/03 01:03:24;;;;;;;6.60;4.30;;;;;;;22.79;27.74;101418.41;4955997;28;118114;-59
2021/01/03 01:05:50;;;;;;;8.82;5.38;;;;;;;22.79;27.60;101423.72;4959405;28;127085;-59
2021/01/03 01:08:15;;;;;;;6.88;4.68;;;;;;;22.79;27.63;101417.53;4961578;28;97270;-59
2021/01/03 01:10:40;;;;;;;6.65;4.75;;;;;;;22.78;27.72;101413.13;4946161;28;96887;-59
2021/01/03 01:13:06;;;;;;;6.53;4.65;;;;;;;22.78;27.70;101422.00;4959151;28;117203;-59
2021/01/03 01:15:31;;;;;;;6.75;4.85;;;;;;;22.78;27.75;101415.78;4955240;28;126961;-59
2021/01/03 01:17:58;;;;;;;6.05;4.38;;;;;;;22.78;27.72;101414.03;4927820;28;97247;-59
2021/01/03 01:20:25;;;;;;;7.13;5.00;;;;;;;22.77;27.68;101409.59;4939767;28;101216;-59
2021/01/03 01:22:51;;;;;;;6.40;4.72;;;;;;;22.77;27.79;101409.59;4957604;28;97299;-59
2021/01/03 01:25:17;;;;;;;7.18;5.00;;;;;;;22.77;27.58;101414.94;4954760;28;126790;-59
2021/01/03 01:27:43;;;;;;;7.20;4.75;;;;;;;22.78;27.50;101421.09;4941423;28;97201;-59
2021/01/03 01:30:09;;;;;;;6.72;5.18;;;;;;;22.77;27.79;101416.72;4956799;28;96856;-59
2021/01/03 01:32:34;;;;;;;7.18;4.75;;;;;;;22.77;27.51;101420.25;4944518;28;97586;-59
2021/01/03 01:35:00;;;;;;;5.65;4.75;;;;;;;22.76;27.76;101421.19;4937121;28;127417;-59
2021/01/03 01:37:25;;;;;;;6.68;4.93;;;;;;;22.77;27.93;101424.69;4954277;28;103107;-59
2021/01/03 01:39:51;;;;;;;7.20;5.00;;;;;;;22.76;27.56;101423.84;4957659;28;116551;-59
2021/01/03 01:42:17;;;;;;;7.20;4.80;;;;;;;22.77;27.66;101424.69;4956502;28;117093;-59
2021/01/03 01:44:42;;;;;;;6.10;4.70;;;;;;;22.77;27.58;101419.38;4956106;28;99162;-59
2021/01/03 01:47:22;;;;;;;5.88;4.45;;;;;;;22.77;27.55;101422.03;4960251;28;97270;-59
2021/01/03 01:49:47;;;;;;;6.95;4.97;;;;;;;22.76;27.44;101420.28;4953868;28;97133;-59
2021/01/03 01:52:15;;;;;;;6.80;4.18;;;;;;;22.77;27.56;101420.25;4957109;28;118007;-59
2021/01/03 01:54:41;;;;;;;6.47;4.18;;;;;;;22.77;27.58;101424.69;4941582;28;96937;-59
2021/01/03 01:57:09;;;;;;;6.22;4.70;;;;;;;22.77;27.81;101419.38;4955322;28;125534;-59
2021/01/03 01:59:43;;;;;;;6.65;4.82;;;;;;;22.78;27.73;101418.44;4959049;28;97131;-59
2021/01/03 02:02:17;;;;;;;6.10;4.85;;;;;;;22.77;27.57;101419.38;4955600;28;97466;-59
2021/01/03 02:05:10;;;;;;;;;;;;;;;22.77;27.80;101422.91;4940558;28;100324;-59
2021/01/03 02:07:47;;;;;;;6.60;4.80;;;;;;;22.80;27.49;101416.66;4963976;28;97259;-59
2021/01/03 02:10:28;;;;;;;6.13;4.57;;;;;;;22.76;27.82;101413.19;4961392;28;117176;-59
2021/01/03 02:13:11;;;;;;;6.63;4.88;;;;;;;22.76;27.57;101412.31;4939157;28;98354;-59
2021/01/03 02:15:36;;;;;;;7.88;5.05;;;;;;;22.76;27.61;101412.31;4928638;28;97496;-59
2021/01/03 02:18:03;;;;;;;6.65;5.13;;;;;;;22.75;27.56;101411.44;4946855;28;97184;-59
2021/01/03 02:20:32;;;;;;;7.25;5.25;;;;;;;22.75;27.51;101408.78;4943091;28;96931;-59
2021/01/03 02:23:01;;;;;;;7.75;5.28;;;;;;;22.75;27.79;101406.13;4943753;28;96913;-60
2021/01/03 02:25:26;;;;;;;6.93;4.90;;;;;;;22.75;27.80;101410.59;4944577;28;105740;-59
2021/01/03 02:28:10;;;;;;;6.82;5.07;;;;;;;22.74;27.67;101409.69;4955429;28;126539;-59
2021/01/03 02:30:35;;;;;;;7.18;5.18;;;;;;;22.75;27.79;101411.44;4962779;28;96836;-59
2021/01/03 02:33:21;;;;;;;6.97;5.20;;;;;;;22.74;27.82;101412.34;4962424;28;96913;-59
2021/01/03 02:35:47;;;;;;;8.82;5.70;;;;;;;22.75;27.49;101405.25;4945338;28;97551;-59
2021/01/03 02:38:14;;;;;;;7.70;5.13;;;;;;;22.75;27.58;101410.59;4944439;28;97163;-59
2021/01/03 02:40:39;;;;;;;7.03;5.20;;;;;;;22.74;27.97;101412.34;4943307;28;110223;-59
2021/01/03 02:43:05;;;;;;;7.53;5.72;;;;;;;22.75;27.49;101415.91;4960618;28;117551;-59
2021/01/03 02:45:31;;;;;;;7.80;5.68;;;;;;;22.75;27.60;101415.91;4958055;28;100957;-59
2021/01/03 02:47:59;;;;;;;7.18;5.38;;;;;;;22.75;27.45;101416.75;4960964;28;97269;-59
2021/01/03 02:50:25;;;;;;;6.78;5.18;;;;;;;22.75;27.58;101418.56;4939810;28;96708;-59
2021/01/03 02:52:50;;;;;;;6.82;5.15;;;;;;;22.75;27.69;101421.22;4924678;28;97071;-59
2021/01/03 02:55:16;;;;;;;7.32;5.40;;;;;;;22.74;27.73;101412.34;4956068;28;118752;-59
2021/01/03 02:57:43;;;;;;;7.90;5.70;;;;;;;22.74;27.79;101409.69;4944031;28;97170;-59
2021/01/03 03:00:10;;;;;;;7.53;5.65;;;;;;;22.75;27.49;101407.91;4940172;28;97132;-59
2021/01/03 03:02:36;;;;;;;7.57;5.78;;;;;;;22.75;27.71;101407.91;4960339;28;96754;-59
2021/01/03 03:05:02;;;;;;;8.18;5.60;;;;;;;22.75;27.58;101402.59;4954597;28;125323;-59
2021/01/03 03:07:27;;;;;;;7.82;5.63;;;;;;;22.75;27.45;101410.59;4955245;28;97306;-59
2021/01/03 03:09:53;;;;;;;8.77;5.88;;;;;;;22.75;27.37;101405.25;4963855;28;96802;-59
2021/01/03 03:12:18;;;;;;;7.65;5.38;;;;;;;22.75;27.77;101402.59;4944401;28;119432;-59
2021/01/03 03:14:44;;;;;;;9.15;5.78;;;;;;;22.75;27.77;101399.94;4959163;28;126730;-59
2021/01/03 03:17:09;;;;;;;8.13;5.45;;;;;;;22.75;27.68;101402.59;4961481;28;97219;-59
2021/01/03 03:19:36;;;;;;;8.02;5.72;;;;;;;22.75;27.54;101402.59;4960429;28;96896;-59
2021/01/03 03:22:02;;;;;;;7.78;5.72;;;;;;;22.75;27.70;101399.94;4960846;28;116827;-59
2021/01/03 03:24:28;;;;;;;7.68;5.40;;;;;;;22.75;27.44;101407.91;4961718;28;99144;-59
2021/01/03 03:26:57;;;;;;;7.75;5.68;;;;;;;22.75;27.30;101402.59;4961399;28;97141;-59
2021/01/03 03:29:23;;;;;;;8.93;5.97;;;;;;;22.76;27.82;101399.00;4977386;28;117775;-59
2021/01/03 03:31:48;;;;;;;7.65;5.75;;;;;;;22.75;27.37;101394.63;4960647;28;111758;-59
2021/01/03 03:34:14;;;;;;;8.20;5.90;;;;;;;22.75;27.48;101400.81;4977916;22;127802;-54
2021/01/03 03:36:40;;;;;;;8.38;6.05;;;;;;;22.75;27.50;101398.16;4959430;28;97479;-55
2021/01/03 03:39:05;;;;;;;9.52;6.10;;;;;;;22.76;27.85;101399.91;4959568;28;96730;-54
2021/01/03 03:41:31;;;;;;;8.05;5.78;;;;;;;22.76;28.15;101404.34;4938738;28;116721;-55
2021/01/03 03:43:56;;;;;;;8.55;6.10;;;;;;;22.76;27.53;101401.66;4963165;28;126888;-54
2021/01/03 03:46:22;;;;;;;8.55;6.43;;;;;;;22.76;27.47;101396.34;4954502;28;126792;-55
2021/01/03 03:48:47;;;;;;;8.55;6.40;;;;;;;22.76;27.57;101412.31;4959419;28;96913;-55
2021/01/03 03:51:17;;;;;;;8.90;6.38;;;;;;;22.75;27.75;101403.47;4956153;28;115512;-54
2021/01/03 03:53:43;;;;;;;9.32;6.20;;;;;;;22.76;27.75;101410.53;4951479;28;121867;-54
2021/01/03 03:56:11;;;;;;;9.60;6.35;;;;;;;22.75;27.89;101399.94;4959398;28;97153;-55
2021/01/03 03:58:37;;;;;;;9.68;7.05;;;;;;;22.75;27.89;101400.81;4938749;28;97219;-54
2021/01/03 04:01:03;;;;;;;9.95;6.97;;;;;;;22.75;27.49;101400.81;4942072;28;99051;-54
2021/01/03 04:03:28;;;;;;;10.00;7.03;;;;;;;22.75;27.76;101405.25;4937396;28;97737;-54
2021/01/03 04:05:54;;;;;;;8.75;6.57;;;;;;;22.75;27.45;101403.47;4954953;28;126794;-55
2021/01/03 04:08:19;;;;;;;12.23;7.22;;;;;;;22.75;27.37;101402.59;4954062;28;117506;-54
2021/01/03 04:10:45;;;;;;;8.85;6.60;;;;;;;22.74;27.63;101400.84;4957250;28;96906;-55
2021/01/03 04:13:10;;;;;;;10.30;7.72;;;;;;;22.74;27.48;101398.19;4963694;28;127753;-54
2021/01/03 04:15:36;;;;;;;10.60;6.97;;;;;;;22.73;27.69;101389.34;4956919;28;97155;-54
2021/01/03 04:18:02;;;;;;;9.20;6.57;;;;;;;22.74;27.63;101400.84;4957048;28;96901;-55
2021/01/03 04:20:27;;;;;;;9.98;7.30;;;;;;;22.74;27.44;101403.50;4963828;28;96800;-55
2021/01/03 04:22:53;;;;;;;9.52;6.72;;;;;;;22.74;27.76;101401.72;4960561;28;97449;-55
2021/01/03 04:25:19;;;;;;;9.32;6.97;;;;;;;22.74;27.68;101403.50;4965792;28;126659;-54
2021/01/03 04:27:44;;;;;;;10.63;7.50;;;;;;;22.74;27.76;101400.84;4959991;28;96831;-54
2021/01/03 04:30:10;;;;;;;11.18;7.40;;;;;;;22.74;27.44;101403.50;4967160;28;96861;-54
2021/01/03 04:32:36;;;;;;;9.88;7.28;;;;;;;22.74;27.65;101400.84;4959228;28;98567;-54
2021/01/03 04:35:01;;;;;;;9.68;6.80;;;;;;;22.73;27.64;101397.31;4959467;28;126224;-54
2021/01/03 04:37:27;;;;;;;11.75;8.20;;;;;;;22.72;27.39;101392.91;4956778;28;118217;-54
2021/01/03 04:39:52;;;;;;;10.38;7.57;;;;;;;22.73;27.63;101397.31;4956544;28;96833;-55
2021/01/03 04:42:29;;;;;;;11.07;7.50;;;;;;;22.73;27.43;101402.66;4958057;28;127910;-54
2021/01/03 04:45:00;;;;;;;10.52;7.53;;;;;;;22.72;27.61;101400.88;4937611;28;97412;-54
2021/01/03 04:47:26;;;;;;;10.60;7.22;;;;;;;22.73;27.54;101402.66;4928575;28;96964;-54
2021/01/03 04:50:02;;;;;;;9.88;6.80;;;;;;;22.71;27.40;101400.94;4958113;28;96752;-55
2021/01/03 04:53:05;;;;;;;10.57;7.47;;;;;;;22.70;27.64;101396.53;4967879;28;97495;-54
2021/01/03 04:55:31;;;;;;;10.55;7.68;;;;;;;22.72;27.81;101405.34;4957069;28;97419;-54
2021/01/03 04:58:15;;;;;;;10.43;7.25;;;;;;;22.68;27.50;101403.69;4941035;28;96803;-54
2021/01/03 05:01:18;;;;;;;10.55;7.70;;;;;;;22.68;27.46;101398.38;4956238;28;97259;-54
2021/01/03 05:03:46;;;;;;;10.68;7.70;;;;;;;22.69;27.75;101408.97;4938745;28;97434;-54
2021/01/03 05:06:19;;;;;;;11.45;7.75;;;;;;;22.69;27.58;101400.09;4954198;28;97128;-54
2021/01/03 05:08:46;;;;;;;10.07;7.13;;;;;;;22.69;27.48;101405.44;4938729;28;97064;-54
2021/01/03 05:11:36;;;;;;;10.55;7.57;;;;;;;22.69;27.79;101410.75;4959446;28;117704;-54
2021/01/03 05:14:29;;;;;;;10.88;7.75;;;;;;;22.68;27.54;101409.03;4942967;28;97534;-54
2021/01/03 05:16:55;;;;;;;9.95;7.03;;;;;;;22.70;27.46;101407.19;4937490;28;97286;-54
2021/01/03 05:19:22;;;;;;;10.18;7.47;;;;;;;22.70;27.63;101408.03;4945983;28;96835;-55
2021/01/03 05:21:52;;;;;;;10.77;7.70;;;;;;;22.69;27.29;101406.31;4943149;28;97125;-54
2021/01/03 05:24:20;;;;;;;11.43;7.88;;;;;;;22.70;27.66;101404.53;4955517;28;103045;-54
2021/01/03 05:26:45;;;;;;;12.25;8.55;;;;;;;22.71;27.72;101406.25;4928252;28;125031;-54
2021/01/03 05:29:12;;;;;;;11.13;8.30;;;;;;;22.71;27.51;101403.59;4961753;28;96809;-54
2021/01/03 05:31:37;;;;;;;11.80;7.85;;;;;;;22.72;27.44;101410.66;4939259;28;97084;-54
2021/01/03 05:34:08;;;;;;;11.02;7.93;;;;;;;22.71;27.72;101407.16;4942704;28;97586;-54
2021/01/03 05:36:41;;;;;;;11.25;8.00;;;;;;;22.71;27.62;101400.94;4942257;28;97286;-54
2021/01/03 05:39:12;;;;;;;10.63;7.60;;;;;;;22.72;27.71;101410.66;4940127;28;96631;-54
2021/01/03 05:41:52;;;;;;;11.90;8.38;;;;;;;22.72;27.55;101408.88;4960788;28;97819;-54
2021/01/03 05:44:28;;;;;;;11.05;8.02;;;;;;;22.71;27.50;101415.13;4924548;28;97577;-54
2021/01/03 05:47:21;;;;;;;10.82;7.75;;;;;;;22.71;27.39;101409.81;4938537;28;97255;-54
2021/01/03 05:49:47;;;;;;;10.45;7.75;;;;;;;22.72;27.37;101408.88;4919034;28;96799;-54
2021/01/03 05:52:29;;;;;;;10.43;7.50;;;;;;;22.70;27.60;101404.53;4937917;28;96847;-54
2021/01/03 05:54:55;;;;;;;10.00;7.75;;;;;;;22.71;27.78;101417.78;4926365;28;98122;-55
2021/01/03 05:57:28;;;;;;;11.52;7.75;;;;;;;22.71;27.44;101419.53;4939195;28;97061;-54
2021/01/03 05:59:54;;;;;;;10.27;7.45;;;;;;;22.71;27.70;101420.44;4938827;28;98163;-54
2021/01/03 06:02:22;;;;;;;11.15;7.72;;;;;;;22.71;27.36;101416.88;4936858;28;97082;-54
2021/01/03 06:04:47;;;;;;;9.88;7.28;;;;;;;22.71;27.71;101412.47;4955061;28;106010;-55
2021/01/03 06:07:17;;;;;;;10.32;7.82;;;;;;;22.72;27.49;101424.81;4938357;28;100744;-54
2021/01/03 06:09:42;;;;;;;9.88;7.57;;;;;;;22.71;27.65;101419.53;4938113;28;97320;-54
2021/01/03 06:12:14;;;;;;;9.68;7.40;;;;;;;22.71;27.55;101419.53;4956563;28;116621;-54
2021/01/03 06:14:39;;;;;;;9.52;7.47;;;;;;;22.72;27.55;101432.81;4955854;28;97585;-54
2021/01/03 06:17:16;;;;;;;10.13;8.00;;;;;;;22.71;27.39;101435.50;4904018;28;126670;-54
2021/01/03 06:19:47;;;;;;;10.23;7.35;;;;;;;22.71;27.64;101432.84;4940128;28;96862;-54
2021/01/03 06:22:24;;;;;;;9.52;7.15;;;;;;;22.71;27.34;101436.41;4957042;28;97795;-54
2021/01/03 06:24:50;;;;;;;9.38;7.13;;;;;;;22.72;27.37;101448.75;4920415;28;98544;-54
2021/01/03 06:27:24;;;;;;;8.85;7.22;;;;;;;22.71;27.62;101446.13;4958211;28;127325;-54
2021/01/03 06:30:07;;;;;;;9.95;7.47;;;;;;;22.71;27.55;101443.47;4924909;28;106090;-54
2021/01/03 06:32:53;;;;;;;9.13;7.50;;;;;;;22.70;27.32;101439.94;4954274;28;97857;-54
2021/01/03 06:35:27;;;;;;;10.25;7.45;;;;;;;22.71;27.69;101432.84;4929734;28;97798;-55
2021/01/03 06:38:20;;;;;;;9.65;7.22;;;;;;;22.69;27.44;101445.31;4949965;28;122676;-54
2021/01/03 06:40:57;;;;;;;10.05;6.63;;;;;;;22.70;27.44;101447.06;4932258;28;115491;-54
2021/01/03 06:43:44;;;;;;;8.30;6.60;;;;;;;22.67;27.42;101450.66;4959632;28;96780;-54
2021/01/03 06:46:40;;;;;;;9.25;7.15;;;;;;;22.67;27.82;101452.47;4959919;28;97495;-54
2021/01/03 06:49:18;;;;;;;9.63;6.95;;;;;;;22.69;27.44;101450.63;4963674;28;97212;-54
2021/01/03 06:51:49;;;;;;;8.93;6.50;;;;;;;22.69;27.73;101462.16;4946411;28;97125;-54
2021/01/03 06:54:35;;;;;;;9.43;6.82;;;;;;;22.67;27.42;101452.47;4963769;28;96994;-54
2021/01/03 06:57:11;;;;;;;9.45;6.85;;;;;;;22.69;27.33;101453.28;4942426;28;126913;-54
2021/01/03 07:00:12;;;;;;;8.45;6.25;;;;;;;22.69;27.69;101451.53;4940715;28;97342;-55
2021/01/03 07:02:42;;;;;;;9.40;6.70;;;;;;;22.71;27.59;101451.44;4955841;28;97075;-54
2021/01/03 07:05:09;;;;;;;8.90;6.40;;;;;;;22.72;27.72;101447.88;4922598;28;96802;-54
2021/01/03 07:07:34;;;;;;;9.15;6.45;;;;;;;22.73;27.80;101452.31;4937604;28;97374;-54
2021/01/03 07:10:18;;;;;;;9.70;7.00;;;;;;;22.71;27.90;101449.69;4937251;28;116300;-54
2021/01/03 07:12:48;;;;;;;8.07;5.65;;;;;;;22.74;27.82;101454.91;4961926;28;96748;-54
2021/01/03 07:15:22;;;;;;;9.40;6.53;;;;;;;22.74;27.78;101451.38;4959446;28;96676;-54
2021/01/03 07:17:56;;;;;;;12.15;7.05;;;;;;;22.76;27.75;101457.50;4957493;28;120418;-54
2021/01/03 07:20:35;;;;;;;9.13;6.50;;;;;;;22.76;27.76;101458.41;4958740;28;97304;-55
2021/01/03 07:23:34;;;;;;;10.43;7.75;;;;;;;22.73;27.77;101453.16;4930291;28;97013;-54
2021/01/03 07:26:22;;;;;;;9.95;6.82;;;;;;;22.74;27.87;101457.56;4957910;28;97390;-55
2021/01/03 07:28:49;;;;;;;11.13;6.53;;;;;;;22.75;27.52;101464.63;4954813;28;97540;-54
2021/01/03 07:31:36;;;;;;;9.75;6.88;;;;;;;22.74;27.83;101462.88;4972877;28;97265;-54
2021/01/03 07:34:20;;;;;;;10.70;6.80;;;;;;;22.75;27.54;101461.09;4965123;28;97049;-54
2021/01/03 07:36:52;;;;;;;11.02;6.57;;;;;;;22.75;27.60;101461.09;4941261;28;96964;-53
2021/01/03 07:39:21;;;;;;;11.55;6.90;;;;;;;22.75;27.63;101466.44;4955283;28;98601;-53
2021/01/03 07:41:48;;;;;;;9.52;6.90;;;;;;;22.76;27.71;101465.50;4969043;28;97346;-54
2021/01/03 07:44:30;;;;;;;8.35;6.45;;;;;;;22.74;28.03;101462.00;4926711;28;96830;-54
2021/01/03 07:46:57;;;;;;;8.38;6.43;;;;;;;22.76;27.68;101465.50;4972056;28;99493;-54
2021/01/03 07:49:25;;;;;;;8.20;6.47;;;;;;;22.76;28.04;101465.50;4956145;28;97542;-54
2021/01/03 07:51:50;;;;;;;8.30;6.60;;;;;;;22.77;28.12;101464.59;4933390;28;97369;-54
2021/01/03 07:54:15;;;;;;;8.57;6.45;;;;;;;22.76;28.04;101476.13;4967821;28;116840;-54
2021/01/03 07:56:41;;;;;;;9.00;7.30;;;;;;;22.76;27.62;101468.16;4943569;28;115169;-54
2021/01/03 07:59:06;;;;;;;7.47;6.25;;;;;;;22.75;27.70;101472.59;4959907;28;114690;-54
2021/01/03 08:01:34;;;;;;;28.90;20.77;;;;;;;22.74;26.91;101475.31;4958414;28;126159;-54
2021/01/03 08:04:09;;;;;;;23.33;17.98;;;;;;;22.63;26.71;101481.78;4924000;28;96934;-53
2021/01/03 08:06:34;;;;;;;24.67;17.45;;;;;;;22.57;26.69;101481.09;4969812;28;97334;-53
2021/01/03 08:09:00;;;;;;;16.65;12.88;;;;;;;22.52;27.20;101481.22;4964734;28;127368;-53
2021/01/03 08:11:39;;;;;;;15.95;12.20;;;;;;;22.49;27.54;101478.63;4954419;28;97766;-53
2021/01/03 08:14:07;;;;;;;16.02;12.25;;;;;;;22.50;27.60;101485.72;4952191;28;97106;-53
2021/01/03 08:16:32;;;;;;;14.32;11.23;;;;;;;22.50;27.57;101484.84;4939907;28;97030;-53
2021/01/03 08:19:08;;;;;;;13.75;10.95;;;;;;;22.48;27.31;101486.66;4935183;28;97767;-53
2021/01/03 08:21:40;;;;;;;16.17;10.73;;;;;;;22.49;27.31;101485.75;4947047;28;97178;-53
2021/01/03 08:24:11;;;;;;;13.77;9.63;;;;;;;22.49;27.19;101494.59;4940739;28;97963;-53
2021/01/03 08:26:51;;;;;;;13.13;9.43;;;;;;;22.50;27.54;101492.81;4940487;28;96968;-53
2021/01/03 08:29:35;;;;;;;11.63;8.65;;;;;;;22.50;27.49;101493.69;4940491;28;96915;-53
2021/01/03 08:32:03;;;;;;;11.50;8.82;;;;;;;22.51;27.58;101497.22;4964475;28;97305;-53
2021/01/03 08:34:32;;;;;;;12.52;8.88;;;;;;;22.52;27.66;101499.84;4956066;28;97129;-53
2021/01/03 08:36:57;;;;;;;10.25;7.88;;;;;;;22.52;27.58;101502.50;4963553;28;96767;-53
2021/01/03 08:39:25;;;;;;;12.07;8.18;;;;;;;22.53;27.44;101504.25;4956650;28;99796;-54
2021/01/03 08:42:02;;;;;;;9.45;7.40;;;;;;;22.54;27.55;101508.63;4974085;28;96827;-54
2021/01/03 08:44:39;;;;;;;10.98;7.28;;;;;;;22.54;27.26;101510.44;4955389;28;97911;-53
2021/01/03 08:47:10;;;;;;;8.77;6.60;;;;;;;22.55;27.54;101509.50;4974044;28;97160;-54
2021/01/03 08:49:37;;;;;;;9.00;7.43;;;;;;;22.57;27.45;101513.00;4956162;28;97484;-53
2021/01/03 08:52:22;;;;;;;8.40;6.85;;;;;;;22.55;27.22;101517.47;4973098;28;125922;-53
2021/01/03 08:54:49;;;;;;;8.00;6.60;;;;;;;22.59;27.23;101516.50;4947392;28;96769;-53
2021/01/03 08:57:15;;;;;;;9.60;6.65;;;;;;;22.59;27.29;101520.03;4956482;28;96675;-53
2021/01/03 08:59:41;;;;;;;8.00;6.30;;;;;;;22.59;27.51;101522.69;4971991;28;97515;-54
2021/01/03 09:02:21;;;;;;;7.70;6.32;;;;;;;22.58;27.38;101517.41;4954726;28;109793;-53
2021/01/03 09:04:47;;;;;;;9.40;6.53;;;;;;;22.60;27.27;101516.47;4955121;28;96907;-54
2021/01/03 09:07:13;;;;;;;7.88;5.80;;;;;;;22.60;27.63;101518.22;4972923;28;96713;-54
2021/01/03 09:09:38;;;;;;;7.43;6.18;;;;;;;22.61;27.36;101520.84;4954625;28;97677;-54
2021/01/03 09:12:05;;;;;;;6.93;5.60;;;;;;;22.60;27.33;101521.78;4935043;28;126593;-54
2021/01/03 09:14:40;;;;;;;7.60;6.25;;;;;;;22.60;27.16;101529.75;4938735;28;106500;-53
2021/01/03 09:17:09;;;;;;;7.50;5.70;;;;;;;22.62;27.54;101532.38;4974185;28;96713;-54
2021/01/03 09:19:59;;;;;;;6.72;5.47;;;;;;;22.58;27.28;101528.94;4969797;28;97565;-53
2021/01/03 09:22:29;;;;;;;6.72;5.80;;;;;;;22.60;27.62;101535.06;4973592;28;97305;-53
2021/01/03 09:25:23;;;;;;;6.78;5.88;;;;;;;22.59;27.35;101537.78;4939306;28;96864;-54
2021/01/03 09:27:54;;;;;;;6.72;5.30;;;;;;;22.60;27.36;101535.06;4973099;28;96877;-53
2021/01/03 09:30:21;;;;;;;5.93;4.85;;;;;;;22.60;27.41;101524.44;4940108;28;97665;-53
2021/01/03 09:32:49;;;;;;;7.10;5.10;;;;;;;22.61;27.23;101535.94;4956040;28;97157;-53
2021/01/03 09:35:20;;;;;;;5.95;4.80;;;;;;;22.61;27.29;101539.47;4990538;23;97010;-59
2021/01/03 09:38:05;;;;;;;6.28;4.90;;;;;;;22.59;27.47;101541.28;4994777;28;96810;-59
2021/01/03 09:40:48;;;;;;;5.50;4.78;;;;;;;22.59;27.29;101546.59;4983133;28;118057;-59
2021/01/03 09:43:32;;;;;;;4.90;4.37;;;;;;;22.59;27.47;101548.41;4983664;28;113122;-58
2021/01/03 09:46:02;;;;;;;6.57;4.63;;;;;;;22.61;27.23;101541.25;4972637;28;96795;-59
2021/01/03 09:48:36;;;;;;;5.13;4.32;;;;;;;22.60;27.34;101544.81;4974696;28;119254;-59
2021/01/03 09:51:12;;;;;;;5.15;4.53;;;;;;;22.59;27.22;101543.94;4971323;28;97570;-59
2021/01/03 09:53:39;;;;;;;6.00;4.30;;;;;;;22.60;27.13;101547.47;4952632;28;126560;-59
2021/01/03 09:56:07;;;;;;;4.93;4.32;;;;;;;22.60;27.36;101542.16;4944343;28;96951;-64
2021/01/03 09:58:38;;;;;;;5.95;4.53;;;;;;;22.59;27.38;101546.59;4993032;28;110907;-64
2021/01/03 10:01:04;;;;;;;5.63;4.40;;;;;;;22.60;27.25;101551.03;4955027;28;100499;-65
2021/01/03 10:03:42;;;;;;;5.38;4.15;;;;;;;22.59;27.24;101543.09;4974911;28;101699;-64
2021/01/03 10:06:21;;;;;;;4.57;3.97;;;;;;;22.59;27.09;101537.78;4974034;28;96868;-64
2021/01/03 10:08:46;;;;;;;4.45;4.05;;;;;;;22.59;27.30;101538.63;4992706;28;96796;-64
2021/01/03 10:11:27;;;;;;;4.95;3.92;;;;;;;22.58;27.07;101541.31;4975199;28;97417;-64
2021/01/03 10:13:54;;;;;;;4.45;3.75;;;;;;;22.60;27.42;101535.06;4992730;28;97275;-64
2021/01/03 10:16:20;;;;;;;4.65;3.72;;;;;;;22.61;27.13;101536.81;4970753;28;96838;-65
2021/01/03 10:18:46;;;;;;;4.50;3.58;;;;;;;22.61;27.08;101542.13;4942549;28;96836;-64
2021/01/03 10:21:27;;;;;;;4.10;3.55;;;;;;;22.61;27.20;101543.91;4975289;28;97657;-65
2021/01/03 10:23:57;;;;;;;4.47;3.70;;;;;;;22.63;27.04;101542.09;4971943;28;97801;-64
2021/01/03 10:26:24;;;;;;;4.43;3.60;;;;;;;22.62;27.46;101541.22;4962745;28;96722;-64
2021/01/03 10:28:51;;;;;;;3.90;3.38;;;;;;;22.62;27.11;101543.00;4995839;28;116626;-64
2021/01/03 10:31:16;;;;;;;4.65;3.58;;;;;;;22.63;27.09;101536.75;4976509;28;98907;-64
2021/01/03 10:33:42;;;;;;;4.07;3.30;;;;;;;22.63;27.45;101534.97;4994987;28;126496;-65
2021/01/03 10:36:07;;;;;;;3.63;3.00;;;;;;;22.64;27.11;101538.53;4976059;28;96803;-65
2021/01/03 10:38:34;;;;;;;4.10;3.30;;;;;;;22.63;27.13;101537.63;4994492;28;116583;-64
2021/01/03 10:41:00;;;;;;;3.97;3.40;;;;;;;22.63;26.85;101534.97;4994493;28;97566;-64
2021/01/03 10:43:25;;;;;;;3.60;3.03;;;;;;;22.63;27.30;101537.63;4959092;28;116070;-64
2021/01/03 10:45:50;;;;;;;4.05;3.17;;;;;;;22.62;27.13;101530.59;4953277;28;96769;-64
2021/01/03 10:48:16;;;;;;;4.03;3.20;;;;;;;22.63;27.07;101531.44;4940023;28;116455;-64
2021/01/03 10:50:41;;;;;;;3.80;3.08;;;;;;;22.64;27.07;101530.53;4993593;28;125376;-64
2021/01/03 10:53:07;;;;;;;3.72;3.10;;;;;;;22.63;27.09;101534.09;4979045;28;128141;-64
2021/01/03 10:55:32;;;;;;;4.30;3.20;;;;;;;22.63;27.28;101532.31;4960844;28;96763;-64
2021/01/03 10:57:58;;;;;;;4.00;3.10;;;;;;;22.64;27.29;101533.22;4965764;28;107537;-64
2021/01/03 11:00:23;;;;;;;3.58;3.10;;;;;;;22.63;27.27;101536.75;4974206;28;105121;-64
2021/01/03 11:02:49;;;;;;;3.60;2.97;;;;;;;22.63;27.03;101531.44;4961066;28;97251;-64
2021/01/03 11:05:16;;;;;;;3.53;2.67;;;;;;;22.62;27.11;101525.25;4977421;28;96900;-64
2021/01/03 11:07:42;;;;;;;3.47;2.85;;;;;;;22.63;27.00;101534.09;4974129;28;115545;-64
2021/01/03 11:10:08;;;;;;;3.35;2.90;;;;;;;22.62;26.92;101527.94;4966741;28;125610;-64
2021/01/03 11:12:35;;;;;;;2.95;2.33;;;;;;;22.63;26.87;101534.97;4990255;28;98552;-64
2021/01/03 11:15:00;;;;;;;2.47;2.25;;;;;;;22.63;27.09;101526.13;4977313;28;96793;-65
2021/01/03 11:17:25;;;;;;;3.00;2.70;;;;;;;22.62;27.23;101519.94;4971401;28;96871;-64
2021/01/03 11:19:51;;;;;;;2.83;2.50;;;;;;;22.63;27.27;101521.66;4984035;28;127000;-65
2021/01/03 11:22:17;;;;;;;3.22;2.67;;;;;;;22.62;27.15;101517.28;4966537;28;107380;-64
2021/01/03 11:24:42;;;;;;;3.05;2.60;;;;;;;22.62;27.04;101517.28;4948662;28;96882;-64
2021/01/03 11:27:13;;;;;;;3.35;2.60;;;;;;;22.62;27.01;101517.28;4989469;28;97227;-58
2021/01/03 11:29:38;;;;;;;2.88;2.35;;;;;;;22.60;27.12;101513.81;4957587;28;107987;-68
2021/01/03 11:32:06;;;;;;;2.75;2.22;;;;;;;22.59;27.02;101506.72;4969116;28;97213;-66
2021/01/03 11:34:32;;;;;;;4.72;2.53;;;;;;;22.59;27.15;101520.03;4967856;28;109773;-66